Harmony Of The Seas — C6BX8 — position and weather

sailwx.info

Track history (hours):
 
Tides and Currents Weather Stations Pressure Air Temp Water Temp Dewpoint Dewpoint Depression Visibility Wind Speed Wind Dir Waves Ship Positions

Harmony Of The Seas

Last reported at 2019-Jun-16 00:00 UTC. Time now 2019-Jun-16 11:22 UTC.
Position N 27°18' W 077°42'.

Length 362 m; draft 9.3 m.

Type: Passenger vessel. MMSI: 311000396.

Wind from 130 at 10 knots

Barometer 1026.2 mb
Air temperature 26.0 ° C
Visibility: greater than 10.8 NM
Water temperature 28.0 ° C

Date/timePositionNaut miles runAvg speedWind from/ knotsBaromVisibWave heightAir tempDewpointWater temp
2019-Jun-16 00:00N 27°18' W 077°42'22318.6 130 / 101026.210.8 26.0 28.0
2019-Jun-15 12:00N 25°18' W 074°12'23319.4 120 / 151026.810.8 30.0 28.0
2019-Jun-15 00:00N 23°06' W 070°42'23919.9 100 / 151026.410.8 27.0 28.0
2019-Jun-14 12:00N 20°48' W 067°12'7418.9 070 / 181027.310.8 27.9 27.7
2019-Jun-14 08:05N 20°06' W 066°07'820.4
2019-Jun-14 07:42N 20°02' W 066°00'920.4
2019-Jun-14 07:15N 19°56' W 065°53'919.6
2019-Jun-14 06:47N 19°51' W 065°44'2431.0
2019-Jun-14 06:00N 19°36' W 065°24'9420.9 090 / 181025.3 26.0 27.7
2019-Jun-14 05:58N 19°43' W 065°31'919.9
2019-Jun-14 05:30N 19°37' W 065°22'1319.9
2019-Jun-14 04:51N 19°29' W 065°11'720.2
2019-Jun-14 04:29N 19°25' W 065°05'1020.2
2019-Jun-14 04:00N 19°19' W 064°57'1020.2
2019-Jun-14 03:29N 19°13' W 064°48'1019.8
2019-Jun-14 03:00N 19°06' W 064°40'1019.6
2019-Jun-14 02:30N 19°01' W 064°32'919.3
2019-Jun-14 02:00N 18°55' W 064°24'4221.0
2019-Jun-14 00:00N 18°30' W 063°48'31 1.7 090 / 221025.427.0 28.0 28.0
2019-Jun-13 06:00N 18°00' W 063°54'3311.8 080 / 211024.010.8 27.0 27.9
2019-Jun-13 03:09N 18°10' W 064°28'210.0
2019-Jun-13 02:58N 18°10' W 064°30'510.1
2019-Jun-13 02:29N 18°10' W 064°35'510.3
2019-Jun-13 02:00N 18°10' W 064°40'510.3
2019-Jun-13 01:30N 18°11' W 064°45'611.1
2019-Jun-13 01:00N 18°12' W 064°51'611.4
2019-Jun-13 00:30N 18°15' W 064°56'4 8.8
2019-Jun-13 00:00N 18°19' W 064°58'1 2.4
2019-Jun-12 23:27N 18°20' W 064°57'0 0.0
2019-Jun-12 22:57N 18°20' W 064°57'0 0.0
2019-Jun-12 22:27N 18°20' W 064°57'0 0.0
2019-Jun-12 21:57N 18°20' W 064°57'0 0.0
2019-Jun-12 21:27N 18°20' W 064°57'0 0.0
2019-Jun-12 20:57N 18°20' W 064°57'0 0.0
2019-Jun-12 20:27N 18°20' W 064°57'0 0.0
2019-Jun-12 19:57N 18°20' W 064°57'0 0.0
2019-Jun-12 19:27N 18°20' W 064°57'0 0.0
2019-Jun-12 18:51N 18°20' W 064°57'0 0.0
2019-Jun-12 18:27N 18°20' W 064°57'0 0.0
2019-Jun-12 17:57N 18°20' W 064°57'0 0.0
2019-Jun-12 17:27N 18°20' W 064°57'0 0.0
2019-Jun-12 16:57N 18°20' W 064°57'0 0.0
2019-Jun-12 16:27N 18°20' W 064°57'0 0.0
2019-Jun-12 15:57N 18°20' W 064°57'0 0.1
2019-Jun-12 15:31N 18°20' W 064°57'4 7.5
2019-Jun-12 15:00N 18°18' W 065°00'713.5
2019-Jun-12 14:30N 18°20' W 065°07'917.1
2019-Jun-12 14:00N 18°27' W 065°12'816.9
2019-Jun-12 13:30N 18°32' W 065°19'917.4
2019-Jun-12 13:00N 18°37' W 065°27'917.8
2019-Jun-12 12:30N 18°42' W 065°35'917.6
2019-Jun-12 12:00N 18°47' W 065°42'5295.2
2019-Jun-12 12:00N 18°42' W 065°42'1225.2 070 / 221025.010.8 27.5 27.6
2019-Jun-12 11:30N 18°52' W 065°50'1017.4
2019-Jun-12 10:56N 18°58' W 065°58'917.6
2019-Jun-12 10:27N 19°03' W 066°06'1017.8
2019-Jun-12 09:55N 19°08' W 066°14'2317.8
2019-Jun-12 08:37N 19°21' W 066°34'317.8
2019-Jun-12 08:29N 19°23' W 066°36'1117.9
2019-Jun-12 07:51N 19°29' W 066°46'918.1
2019-Jun-12 07:22N 19°34' W 066°53'2216.2
2019-Jun-12 06:00N 19°48' W 067°12'11819.6 080 / 211024.0 26.9 27.7
2019-Jun-12 00:00N 20°48' W 069°00'37720.9 130 / 181024.410.8 27.0 28.0
2019-Jun-11 06:00N 24°30' W 074°30'12320.4 100 / 101024.010.8 26.4 27.7
2019-Jun-11 00:00N 25°36' W 076°24'153 8.5 180 / 81024.410.8 28.028.028.0
2019-Jun-10 06:00N 26°24' W 079°06'8714.4 140 / 91020.410.8 27.7 28.5
2019-Jun-10 00:00N 27°42' W 079°48'19 1.0 170 / 151020.710.8 25.5 28.0
2019-Jun-09 06:00N 28°00' W 079°42'34419.1 200 / 151018.310.8 27.5 28.7
2019-Jun-08 12:00N 25°12' W 074°06'11018.4 150 / 91019.510.8 28.6 27.5
2019-Jun-08 06:00N 24°12' W 072°24'12220.4 150 / 61018.510.8 27.0 27.9
2019-Jun-08 00:00N 23°00' W 070°36'15619.5 150 / 141018.7 5.4 27.0 28.0
2019-Jun-07 16:00N 21°30' W 068°18'8320.6 190 / 101014.3 30.4 28.0
2019-Jun-07 12:00N 20°42' W 067°06'8819.1 170 / 121019.510.8 31.2 27.9
2019-Jun-07 07:23N 19°53' W 065°48'2619.7
2019-Jun-07 06:04N 19°39' W 065°25'339.6
2019-Jun-07 06:00N 19°36' W 065°24'516.7 130 / 141018.910.8 26.5 27.7
2019-Jun-07 05:43N 19°35' W 065°19'519.2
2019-Jun-07 05:27N 19°32' W 065°15'1019.7
2019-Jun-07 04:55N 19°26' W 065°06'819.7
2019-Jun-07 04:30N 19°21' W 064°59'1519.9
2019-Jun-07 03:46N 19°12' W 064°47'620.1
2019-Jun-07 03:28N 19°08' W 064°42'1020.3
2019-Jun-07 02:59N 19°02' W 064°34'920.1
2019-Jun-07 02:30N 18°56' W 064°26'5220.8
2019-Jun-07 00:00N 18°24' W 063°42'1615.7 120 / 121019.3 27.0 28.0
2019-Jun-06 22:57N 18°14' W 063°28'919.3
2019-Jun-06 22:30N 18°09' W 063°21'1418.8
2019-Jun-06 21:46N 18°00' W 063°09'6 6.5
2019-Jun-06 20:48N 18°01' W 063°03'0 0.0
2019-Jun-06 19:42N 18°01' W 063°03'0 0.0
2019-Jun-06 19:12N 18°01' W 063°03'0 0.0
2019-Jun-06 19:00N 18°01' W 063°03'0 0.0
2019-Jun-06 17:48N 18°01' W 063°03'0 0.0
2019-Jun-06 17:00N 18°01' W 063°03'0 0.0
2019-Jun-06 15:54N 18°01' W 063°03'0 0.0
2019-Jun-06 15:12N 18°01' W 063°03'0 0.0
2019-Jun-06 15:00N 18°01' W 063°03'0 0.0
2019-Jun-06 14:30N 18°01' W 063°03'0 0.0
2019-Jun-06 13:48N 18°01' W 063°03'0 0.0
2019-Jun-06 13:30N 18°01' W 063°03'0 0.0
2019-Jun-06 12:30N 18°01' W 063°03'1 0.8
2019-Jun-06 11:17N 18°00' W 063°04'4 9.7
2019-Jun-06 10:52N 18°00' W 063°08'910.4
2019-Jun-06 09:59N 18°01' W 063°17'710.4
2019-Jun-06 09:18N 18°02' W 063°25'510.4
2019-Jun-06 08:51N 18°03' W 063°30'410.4
2019-Jun-06 08:27N 18°03' W 063°34'510.4
2019-Jun-06 07:56N 18°04' W 063°40'1910.0
2019-Jun-06 06:00N 18°06' W 064°00'2410.6 110 / 131018.610.8 27.2 27.7
2019-Jun-06 03:41N 18°09' W 064°25'411.0
2019-Jun-06 03:19N 18°10' W 064°30'310.6
2019-Jun-06 03:00N 18°10' W 064°33'510.6
2019-Jun-06 02:30N 18°10' W 064°39'510.6
2019-Jun-06 02:01N 18°10' W 064°44'510.5
2019-Jun-06 01:30N 18°12' W 064°49'510.6
2019-Jun-06 01:01N 18°14' W 064°54'510.6
2019-Jun-06 00:30N 18°17' W 064°59'4 7.1
2019-Jun-06 00:00N 18°20' W 064°57'  
Track history (hours):
 
Tides and Currents Weather Stations Pressure Air Temp Water Temp Dewpoint Dewpoint Depression Visibility Wind Speed Wind Dir Waves Ship Positions

Harmony Of The Seas

Last reported at 2019-Jun-16 00:00 UTC. Time now 2019-Jun-16 11:22 UTC.
Position N 27°18' W 077°42'.

Length 362 m; draft 9.3 m.

Type: Passenger vessel. MMSI: 311000396.

Wind from 130 at 10 knots

Barometer 1026.2 mb
Air temperature 26.0 ° C
Visibility: greater than 10.8 NM
Water temperature 28.0 ° C

Date/timePositionNaut miles runAvg speedWind from/ knotsBaromVisibWave heightAir tempDewpointWater temp
2019-Jun-16 00:00N 27°18' W 077°42'22318.6 130 / 101026.210.8 26.0 28.0
2019-Jun-15 12:00N 25°18' W 074°12'23319.4 120 / 151026.810.8 30.0 28.0
2019-Jun-15 00:00N 23°06' W 070°42'23919.9 100 / 151026.410.8 27.0 28.0
2019-Jun-14 12:00N 20°48' W 067°12'7418.9 070 / 181027.310.8 27.9 27.7
2019-Jun-14 08:05N 20°06' W 066°07'820.4
2019-Jun-14 07:42N 20°02' W 066°00'920.4
2019-Jun-14 07:15N 19°56' W 065°53'919.6
2019-Jun-14 06:47N 19°51' W 065°44'2431.0
2019-Jun-14 06:00N 19°36' W 065°24'9420.9 090 / 181025.3 26.0 27.7
2019-Jun-14 05:58N 19°43' W 065°31'919.9
2019-Jun-14 05:30N 19°37' W 065°22'1319.9
2019-Jun-14 04:51N 19°29' W 065°11'720.2
2019-Jun-14 04:29N 19°25' W 065°05'1020.2
2019-Jun-14 04:00N 19°19' W 064°57'1020.2
2019-Jun-14 03:29N 19°13' W 064°48'1019.8
2019-Jun-14 03:00N 19°06' W 064°40'1019.6
2019-Jun-14 02:30N 19°01' W 064°32'919.3
2019-Jun-14 02:00N 18°55' W 064°24'4221.0
2019-Jun-14 00:00N 18°30' W 063°48'31 1.7 090 / 221025.427.0 28.0 28.0
2019-Jun-13 06:00N 18°00' W 063°54'3311.8 080 / 211024.010.8 27.0 27.9
2019-Jun-13 03:09N 18°10' W 064°28'210.0
2019-Jun-13 02:58N 18°10' W 064°30'510.1
2019-Jun-13 02:29N 18°10' W 064°35'510.3
2019-Jun-13 02:00N 18°10' W 064°40'510.3
2019-Jun-13 01:30N 18°11' W 064°45'611.1
2019-Jun-13 01:00N 18°12' W 064°51'611.4
2019-Jun-13 00:30N 18°15' W 064°56'4 8.8
2019-Jun-13 00:00N 18°19' W 064°58'1 2.4
2019-Jun-12 23:27N 18°20' W 064°57'0 0.0
2019-Jun-12 22:57N 18°20' W 064°57'0 0.0
2019-Jun-12 22:27N 18°20' W 064°57'0 0.0
2019-Jun-12 21:57N 18°20' W 064°57'0 0.0
2019-Jun-12 21:27N 18°20' W 064°57'0 0.0
2019-Jun-12 20:57N 18°20' W 064°57'0 0.0
2019-Jun-12 20:27N 18°20' W 064°57'0 0.0
2019-Jun-12 19:57N 18°20' W 064°57'0 0.0
2019-Jun-12 19:27N 18°20' W 064°57'0 0.0
2019-Jun-12 18:51N 18°20' W 064°57'0 0.0
2019-Jun-12 18:27N 18°20' W 064°57'0 0.0
2019-Jun-12 17:57N 18°20' W 064°57'0 0.0
2019-Jun-12 17:27N 18°20' W 064°57'0 0.0
2019-Jun-12 16:57N 18°20' W 064°57'0 0.0
2019-Jun-12 16:27N 18°20' W 064°57'0 0.0
2019-Jun-12 15:57N 18°20' W 064°57'0 0.1
2019-Jun-12 15:31N 18°20' W 064°57'4 7.5
2019-Jun-12 15:00N 18°18' W 065°00'713.5
2019-Jun-12 14:30N 18°20' W 065°07'917.1
2019-Jun-12 14:00N 18°27' W 065°12'816.9
2019-Jun-12 13:30N 18°32' W 065°19'917.4
2019-Jun-12 13:00N 18°37' W 065°27'917.8
2019-Jun-12 12:30N 18°42' W 065°35'917.6
2019-Jun-12 12:00N 18°47' W 065°42'5295.2
2019-Jun-12 12:00N 18°42' W 065°42'1225.2 070 / 221025.010.8 27.5 27.6
2019-Jun-12 11:30N 18°52' W 065°50'1017.4
2019-Jun-12 10:56N 18°58' W 065°58'917.6
2019-Jun-12 10:27N 19°03' W 066°06'1017.8
2019-Jun-12 09:55N 19°08' W 066°14'2317.8
2019-Jun-12 08:37N 19°21' W 066°34'317.8
2019-Jun-12 08:29N 19°23' W 066°36'1117.9
2019-Jun-12 07:51N 19°29' W 066°46'918.1
2019-Jun-12 07:22N 19°34' W 066°53'2216.2
2019-Jun-12 06:00N 19°48' W 067°12'11819.6 080 / 211024.0 26.9 27.7
2019-Jun-12 00:00N 20°48' W 069°00'37720.9 130 / 181024.410.8 27.0 28.0
2019-Jun-11 06:00N 24°30' W 074°30'12320.4 100 / 101024.010.8 26.4 27.7
2019-Jun-11 00:00N 25°36' W 076°24'153 8.5 180 / 81024.410.8 28.028.028.0
2019-Jun-10 06:00N 26°24' W 079°06'8714.4 140 / 91020.410.8 27.7 28.5
2019-Jun-10 00:00N 27°42' W 079°48'19 1.0 170 / 151020.710.8 25.5 28.0
2019-Jun-09 06:00N 28°00' W 079°42'34419.1 200 / 151018.310.8 27.5 28.7
2019-Jun-08 12:00N 25°12' W 074°06'11018.4 150 / 91019.510.8 28.6 27.5
2019-Jun-08 06:00N 24°12' W 072°24'12220.4 150 / 61018.510.8 27.0 27.9
2019-Jun-08 00:00N 23°00' W 070°36'15619.5 150 / 141018.7 5.4 27.0 28.0
2019-Jun-07 16:00N 21°30' W 068°18'8320.6 190 / 101014.3 30.4 28.0
2019-Jun-07 12:00N 20°42' W 067°06'8819.1 170 / 121019.510.8 31.2 27.9
2019-Jun-07 07:23N 19°53' W 065°48'2619.7
2019-Jun-07 06:04N 19°39' W 065°25'339.6
2019-Jun-07 06:00N 19°36' W 065°24'516.7 130 / 141018.910.8 26.5 27.7
2019-Jun-07 05:43N 19°35' W 065°19'519.2
2019-Jun-07 05:27N 19°32' W 065°15'1019.7
2019-Jun-07 04:55N 19°26' W 065°06'819.7
2019-Jun-07 04:30N 19°21' W 064°59'1519.9
2019-Jun-07 03:46N 19°12' W 064°47'620.1
2019-Jun-07 03:28N 19°08' W 064°42'1020.3
2019-Jun-07 02:59N 19°02' W 064°34'920.1
2019-Jun-07 02:30N 18°56' W 064°26'5220.8
2019-Jun-07 00:00N 18°24' W 063°42'1615.7 120 / 121019.3 27.0 28.0
2019-Jun-06 22:57N 18°14' W 063°28'919.3
2019-Jun-06 22:30N 18°09' W 063°21'1418.8
2019-Jun-06 21:46N 18°00' W 063°09'6 6.5
2019-Jun-06 20:48N 18°01' W 063°03'0 0.0
2019-Jun-06 19:42N 18°01' W 063°03'0 0.0
2019-Jun-06 19:12N 18°01' W 063°03'0 0.0
2019-Jun-06 19:00N 18°01' W 063°03'0 0.0
2019-Jun-06 17:48N 18°01' W 063°03'0 0.0
2019-Jun-06 17:00N 18°01' W 063°03'0 0.0
2019-Jun-06 15:54N 18°01' W 063°03'0 0.0
2019-Jun-06 15:12N 18°01' W 063°03'0 0.0
2019-Jun-06 15:00N 18°01' W 063°03'0 0.0
2019-Jun-06 14:30N 18°01' W 063°03'0 0.0
2019-Jun-06 13:48N 18°01' W 063°03'0 0.0
2019-Jun-06 13:30N 18°01' W 063°03'0 0.0
2019-Jun-06 12:30N 18°01' W 063°03'1 0.8
2019-Jun-06 11:17N 18°00' W 063°04'4 9.7
2019-Jun-06 10:52N 18°00' W 063°08'910.4
2019-Jun-06 09:59N 18°01' W 063°17'710.4
2019-Jun-06 09:18N 18°02' W 063°25'510.4
2019-Jun-06 08:51N 18°03' W 063°30'410.4
2019-Jun-06 08:27N 18°03' W 063°34'510.4
2019-Jun-06 07:56N 18°04' W 063°40'1910.0
2019-Jun-06 06:00N 18°06' W 064°00'2410.6 110 / 131018.610.8 27.2 27.7
2019-Jun-06 03:41N 18°09' W 064°25'411.0
2019-Jun-06 03:19N 18°10' W 064°30'310.6
2019-Jun-06 03:00N 18°10' W 064°33'510.6
2019-Jun-06 02:30N 18°10' W 064°39'510.6
2019-Jun-06 02:01N 18°10' W 064°44'510.5
2019-Jun-06 01:30N 18°12' W 064°49'510.6
2019-Jun-06 01:01N 18°14' W 064°54'510.6
2019-Jun-06 00:30N 18°17' W 064°59'4 7.1
2019-Jun-06 00:00N 18°20' W 064°57'  

Dump ship's entire track history